createdAt,value
2019-04-21T00:01:48.424Z,7.18
2019-04-21T00:04:29.641Z,7.12
2019-04-21T00:07:15.958Z,7.05
2019-04-21T00:12:22.844Z,6.96
2019-04-21T00:14:51.000Z,6.90
2019-04-21T00:17:21.705Z,6.83
2019-04-21T00:20:05.520Z,6.79
2019-04-21T00:22:43.147Z,6.70
2019-04-21T00:25:20.673Z,6.68
2019-04-21T00:27:57.698Z,6.59
2019-04-21T00:30:34.068Z,6.51
2019-04-21T00:32:59.776Z,6.44
2019-04-21T00:35:26.499Z,6.32
2019-04-21T00:38:19.603Z,6.28
2019-04-21T00:40:53.809Z,6.17
2019-04-21T00:43:23.385Z,6.09
2019-04-21T00:45:55.566Z,6.00
2019-04-21T00:48:43.977Z,5.92
2019-04-21T00:51:34.362Z,5.86
2019-04-21T00:54:12.909Z,5.78
2019-04-21T00:56:41.383Z,5.74
2019-04-21T00:59:13.988Z,5.64
2019-04-21T01:01:46.235Z,5.58
2019-04-21T01:04:18.171Z,5.50
2019-04-21T01:07:02.880Z,5.47
2019-04-21T01:09:29.082Z,5.38
2019-04-21T01:12:07.804Z,5.33
2019-04-21T01:14:49.970Z,5.27
2019-04-21T01:17:20.251Z,5.30
2019-04-21T01:19:45.901Z,5.27
2019-04-21T01:22:07.525Z,5.33
2019-04-21T01:24:43.859Z,5.27
2019-04-21T01:27:25.073Z,5.41
2019-04-21T01:30:14.140Z,5.44
2019-04-21T01:32:49.741Z,5.30
2019-04-21T01:35:21.046Z,5.33
2019-04-21T01:37:57.169Z,7.29
2019-04-21T01:40:41.056Z,10.79
2019-04-21T01:43:06.114Z,10.94
2019-04-21T01:45:44.771Z,9.66
2019-04-21T01:48:12.951Z,8.76
2019-04-21T01:50:51.589Z,8.13
2019-04-21T01:53:48.866Z,7.71
2019-04-21T01:56:17.253Z,7.35
2019-04-21T01:58:42.563Z,7.01
2019-04-21T02:01:29.747Z,6.79
2019-04-21T02:04:00.119Z,6.55
2019-04-21T02:06:39.033Z,6.38
2019-04-21T02:09:13.634Z,6.21
2019-04-21T02:11:50.866Z,6.03
2019-04-21T02:14:31.753Z,5.89
2019-04-21T02:16:59.269Z,5.74
2019-04-21T02:19:28.448Z,5.60
2019-04-21T02:22:02.381Z,5.43
2019-04-21T02:24:49.902Z,5.31
2019-04-21T02:27:21.848Z,5.43
2019-04-21T02:29:59.820Z,5.41
2019-04-21T02:32:43.795Z,5.24
2019-04-21T02:35:25.199Z,5.43
2019-04-21T02:37:55.483Z,5.24
2019-04-21T02:40:35.790Z,7.05
2019-04-21T02:45:43.412Z,10.60
2019-04-21T02:48:08.734Z,9.31
2019-04-21T02:50:52.930Z,8.33
2019-04-21T02:53:30.212Z,7.71
2019-04-21T02:55:50.868Z,7.28
2019-04-21T02:58:34.391Z,6.91
2019-04-21T03:01:21.241Z,6.57
2019-04-21T03:03:43.663Z,6.31
2019-04-21T03:06:47.288Z,6.07
2019-04-21T03:11:53.407Z,5.58
2019-04-21T03:14:31.507Z,5.37
2019-04-21T03:16:47.179Z,5.37
2019-04-21T03:19:41.667Z,5.44
2019-04-21T03:22:12.839Z,5.22
2019-04-21T03:24:54.030Z,7.53
2019-04-21T03:29:57.129Z,10.66
2019-04-21T03:35:37.776Z,8.33
2019-04-21T03:40:07.215Z,7.19
2019-04-21T03:42:48.122Z,6.80
2019-04-21T03:45:23.667Z,6.48
2019-04-21T03:47:53.547Z,6.22
2019-04-21T03:50:27.898Z,5.93
2019-04-21T03:53:03.021Z,5.67
2019-04-21T03:58:41.909Z,5.26
2019-04-21T04:03:53.371Z,5.38
2019-04-21T04:09:21.254Z,5.43
2019-04-21T04:14:31.073Z,8.13
2019-04-21T04:17:07.535Z,11.35
2019-04-21T04:19:45.370Z,11.11
2019-04-21T04:22:15.305Z,9.80
2019-04-21T04:27:36.909Z,8.22
2019-04-21T04:29:53.033Z,7.77
2019-04-21T04:32:28.771Z,7.45
2019-04-21T04:50:49.466Z,6.25
2019-04-21T04:56:00.941Z,6.13
2019-04-21T04:58:53.129Z,6.09
2019-04-21T05:01:16.919Z,6.06
2019-04-21T05:03:52.424Z,6.09
2019-04-21T05:11:44.272Z,12.00
2019-04-21T05:19:16.364Z,9.80
2019-04-21T05:21:45.580Z,9.58
2019-04-21T05:24:20.908Z,9.42
2019-04-21T05:26:49.313Z,9.31
2019-04-21T05:29:20.797Z,9.23
2019-04-21T05:32:09.280Z,9.17
2019-04-21T05:34:36.073Z,9.19
2019-04-21T05:37:14.195Z,9.17
2019-04-21T05:39:51.102Z,9.19
2019-04-21T05:42:23.830Z,9.19
2019-04-21T05:45:10.501Z,9.23
2019-04-21T05:47:46.342Z,9.28
2019-04-21T05:50:12.373Z,9.34
2019-04-21T05:52:53.507Z,9.42
2019-04-21T05:55:36.041Z,9.49
2019-04-21T05:58:03.946Z,9.59
2019-04-21T06:00:59.296Z,9.72
2019-04-21T06:03:32.326Z,9.80
2019-04-21T06:06:05.412Z,9.93
2019-04-21T06:08:29.746Z,10.05
2019-04-21T06:11:02.086Z,10.18
2019-04-21T06:13:43.886Z,10.27
2019-04-21T06:16:30.169Z,10.40
2019-04-21T06:18:56.147Z,10.53
2019-04-21T06:21:25.110Z,10.60
2019-04-21T06:24:00.580Z,10.76
2019-04-21T06:26:51.772Z,10.86
2019-04-21T06:29:02.744Z,11.01
2019-04-21T06:32:12.732Z,11.09
2019-04-21T06:34:16.587Z,11.18
2019-04-21T06:37:04.349Z,11.29
2019-04-21T06:39:44.782Z,11.38
2019-04-21T06:42:10.882Z,11.50
2019-04-21T06:44:51.599Z,11.60
2019-04-21T06:47:28.835Z,11.71
2019-04-21T06:49:55.585Z,11.81
2019-04-21T06:52:52.190Z,11.93
2019-04-21T06:57:40.284Z,12.22
2019-04-21T07:00:12.174Z,12.34
2019-04-21T07:02:51.906Z,12.48
2019-04-21T07:08:19.698Z,12.72
2019-04-21T07:10:33.926Z,12.86
2019-04-21T07:13:03.195Z,13.03
2019-04-21T07:15:43.614Z,13.17
2019-04-21T07:18:12.393Z,13.33
2019-04-21T07:20:56.594Z,13.45
2019-04-21T07:23:24.065Z,13.59
2019-04-21T07:26:05.700Z,13.73
2019-04-21T07:28:40.449Z,13.89
2019-04-21T07:31:09.951Z,14.05
2019-04-21T07:33:53.902Z,14.22
2019-04-21T07:36:22.079Z,14.35
2019-04-21T07:38:49.846Z,14.46
2019-04-21T07:41:18.401Z,14.59
2019-04-21T07:44:00.163Z,14.74
2019-04-21T07:46:29.044Z,14.88
2019-04-21T07:49:15.537Z,15.04
2019-04-21T07:52:01.420Z,15.19
2019-04-21T07:54:44.367Z,15.32
2019-04-21T07:56:52.421Z,15.42
2019-04-21T07:59:52.395Z,15.50
2019-04-21T08:02:10.492Z,15.54
2019-04-21T08:05:02.371Z,15.72
2019-04-21T08:10:26.273Z,15.92
2019-04-21T08:13:14.826Z,16.00
2019-04-21T08:15:44.644Z,16.16
2019-04-21T08:21:44.681Z,16.47
2019-04-21T08:28:15.863Z,16.75
2019-04-21T08:35:34.288Z,17.11
2019-04-21T09:01:33.019Z,18.29
2019-04-21T09:04:19.914Z,18.46
2019-04-21T09:09:35.262Z,18.78
2019-04-21T09:12:10.620Z,18.91
2019-04-21T09:14:48.780Z,19.06
2019-04-21T09:17:15.329Z,19.15
2019-04-21T09:19:58.066Z,19.26
2019-04-21T09:22:38.234Z,19.36
2019-04-21T09:25:17.989Z,19.43
2019-04-21T09:27:46.780Z,19.42
2019-04-21T09:30:08.915Z,19.53
2019-04-21T09:32:42.461Z,19.61
2019-04-21T09:35:18.352Z,19.67
2019-04-21T09:38:00.332Z,19.78
2019-04-21T09:40:34.033Z,19.89
2019-04-21T09:43:09.428Z,19.92
2019-04-21T09:45:37.749Z,19.99
2019-04-21T09:48:17.086Z,20.08
2019-04-21T09:50:47.922Z,20.13
2019-04-21T09:53:29.201Z,20.26
2019-04-21T09:55:59.786Z,20.31
2019-04-21T09:58:37.888Z,20.33
2019-04-21T10:01:16.745Z,20.36
2019-04-21T10:03:46.467Z,20.41
2019-04-21T10:06:17.368Z,20.43
2019-04-21T10:08:57.479Z,20.52
2019-04-21T10:11:25.236Z,20.63
2019-04-21T10:13:58.871Z,20.74
2019-04-21T10:16:32.115Z,20.83
2019-04-21T10:19:04.939Z,20.96
2019-04-21T10:21:38.306Z,21.06
2019-04-21T10:24:12.511Z,21.13
2019-04-21T10:26:45.307Z,21.17
2019-04-21T10:29:24.242Z,21.18
2019-04-21T10:31:52.930Z,21.24
2019-04-21T10:34:25.608Z,21.34
2019-04-21T10:36:58.886Z,21.48
2019-04-21T10:39:31.678Z,21.63
2019-04-21T10:42:05.584Z,21.76
2019-04-21T10:44:39.075Z,21.84
2019-04-21T10:47:13.070Z,21.96
2019-04-21T10:49:46.723Z,22.05
2019-04-21T10:52:22.750Z,22.10
2019-04-21T10:55:23.071Z,22.14
2019-04-21T10:57:34.902Z,22.18
2019-04-21T11:00:12.011Z,22.21
2019-04-21T11:02:48.908Z,22.18
2019-04-21T11:05:22.730Z,22.25
2019-04-21T11:08:08.910Z,22.32
2019-04-21T11:10:32.047Z,22.42
2019-04-21T11:13:05.474Z,22.46
2019-04-21T11:15:39.181Z,22.56
2019-04-21T11:18:12.780Z,22.64
2019-04-21T11:20:46.939Z,22.74
2019-04-21T11:23:22.398Z,22.87
2019-04-21T11:25:54.305Z,22.99
2019-04-21T11:28:27.278Z,23.10
2019-04-21T11:31:00.603Z,23.23
2019-04-21T11:33:33.489Z,23.39
2019-04-21T11:36:07.013Z,23.61
2019-04-21T11:39:01.072Z,23.80
2019-04-21T11:41:19.138Z,24.01
2019-04-21T11:43:53.131Z,24.26
2019-04-21T11:46:26.835Z,24.57
2019-04-21T11:49:00.085Z,24.85
2019-04-21T11:51:33.316Z,25.12
2019-04-21T11:54:06.976Z,25.37
2019-04-21T11:56:40.990Z,25.54
2019-04-21T11:59:15.554Z,25.75
2019-04-21T12:01:49.773Z,25.97
2019-04-21T12:04:23.454Z,26.28
2019-04-21T12:06:57.744Z,26.56
2019-04-21T12:09:33.332Z,26.93
2019-04-21T12:12:07.423Z,27.17
2019-04-21T12:14:41.823Z,27.34
2019-04-21T12:17:16.325Z,27.52
2019-04-21T12:19:50.653Z,27.66
2019-04-21T12:22:28.134Z,27.79
2019-04-21T12:24:57.828Z,27.91
2019-04-21T12:27:31.891Z,28.01
2019-04-21T12:30:07.825Z,28.19
2019-04-21T12:32:55.970Z,28.39
2019-04-21T12:35:30.073Z,28.63
2019-04-21T12:38:03.011Z,28.81
2019-04-21T12:40:36.702Z,28.95
2019-04-21T12:43:10.590Z,29.11
2019-04-21T12:45:45.996Z,29.19
2019-04-21T12:48:20.096Z,29.35
2019-04-21T12:50:54.233Z,29.43
2019-04-21T12:53:27.689Z,29.54
2019-04-21T12:56:01.998Z,29.72
2019-04-21T12:58:35.266Z,29.89
2019-04-21T13:01:09.486Z,30.01
2019-04-21T13:03:42.146Z,30.12
2019-04-21T13:06:15.868Z,30.26
2019-04-21T13:08:55.652Z,30.24
2019-04-21T13:11:25.413Z,30.27
2019-04-21T13:13:59.857Z,30.34
2019-04-21T13:16:33.697Z,30.46
2019-04-21T13:19:07.211Z,30.55
2019-04-21T13:21:40.340Z,30.58
2019-04-21T13:24:14.114Z,30.64
2019-04-21T13:26:53.626Z,30.82
2019-04-21T13:29:21.581Z,30.93
2019-04-21T13:31:54.438Z,31.05
2019-04-21T13:34:28.207Z,31.14
2019-04-21T13:37:01.605Z,31.23
2019-04-21T13:40:03.461Z,31.27
2019-04-21T13:42:23.966Z,31.33
2019-04-21T13:44:50.991Z,31.49
2019-04-21T13:47:24.834Z,31.73
2019-04-21T13:49:59.885Z,32.06
2019-04-21T13:52:33.097Z,32.30
2019-04-21T13:55:09.616Z,32.58
2019-04-21T13:57:42.409Z,32.68
2019-04-21T14:00:17.257Z,32.69
2019-04-21T14:02:50.323Z,32.69
2019-04-21T14:05:24.430Z,32.68
2019-04-21T14:07:58.035Z,32.70
2019-04-21T14:10:31.465Z,32.83
2019-04-21T14:13:04.701Z,32.95
2019-04-21T14:15:37.903Z,33.14
2019-04-21T14:18:11.018Z,33.18
2019-04-21T14:20:44.969Z,33.24
2019-04-21T14:23:25.621Z,33.34
2019-04-21T14:25:53.274Z,33.45
2019-04-21T14:28:28.223Z,33.52
2019-04-21T14:31:02.234Z,33.56
2019-04-21T14:33:36.133Z,33.54
2019-04-21T14:36:08.894Z,33.52
2019-04-21T14:38:42.681Z,33.66
2019-04-21T14:41:15.363Z,33.89
2019-04-21T14:43:48.120Z,34.04
2019-04-21T14:46:29.149Z,34.14
2019-04-21T14:49:01.493Z,34.18
2019-04-21T14:51:41.339Z,34.15
2019-04-21T14:54:17.263Z,34.20
2019-04-21T14:56:51.277Z,34.28
2019-04-21T14:59:24.796Z,34.32
2019-04-21T15:01:58.295Z,34.41
2019-04-21T15:04:31.564Z,34.52
2019-04-21T15:07:05.599Z,34.71
2019-04-21T15:09:41.098Z,34.83
2019-04-21T15:12:16.087Z,34.94
2019-04-21T15:14:49.840Z,35.03
2019-04-21T15:17:24.383Z,35.10
2019-04-21T15:20:04.024Z,35.14
2019-04-21T15:22:32.335Z,35.17
2019-04-21T15:25:08.015Z,35.14
2019-04-21T15:27:41.174Z,35.10
2019-04-21T15:30:14.568Z,34.97
2019-04-21T15:32:48.457Z,34.85
2019-04-21T15:35:22.490Z,34.79
2019-04-21T15:37:55.909Z,34.71
2019-04-21T15:40:40.044Z,34.59
2019-04-21T15:43:06.529Z,34.52
2019-04-21T15:45:39.549Z,34.41
2019-04-21T15:48:12.230Z,34.41
2019-04-21T15:50:45.915Z,34.39
2019-04-21T15:53:23.869Z,34.29
2019-04-21T15:56:04.634Z,34.14
2019-04-21T15:58:39.124Z,33.92
2019-04-21T16:01:14.499Z,33.76
2019-04-21T16:03:47.251Z,33.59
2019-04-21T16:06:21.470Z,33.45
2019-04-21T16:08:57.393Z,33.38
2019-04-21T16:11:29.190Z,33.32
2019-04-21T16:14:01.943Z,33.20
2019-04-21T16:16:36.047Z,33.02
2019-04-21T16:19:10.082Z,32.87
2019-04-21T16:21:46.303Z,32.80
2019-04-21T16:24:18.413Z,32.75
2019-04-21T16:26:52.866Z,32.66
2019-04-21T16:29:27.035Z,32.54
2019-04-21T16:32:01.583Z,32.48
2019-04-21T16:34:44.673Z,32.37
2019-04-21T16:37:09.785Z,32.30
2019-04-21T16:39:43.652Z,32.26
2019-04-21T16:42:18.222Z,32.19
2019-04-21T16:44:52.782Z,32.12
2019-04-21T16:47:26.199Z,32.03
2019-04-21T16:50:01.582Z,31.88
2019-04-21T16:52:38.364Z,31.69
2019-04-21T16:55:23.187Z,31.55
2019-04-21T16:58:04.257Z,31.36
2019-04-21T17:00:41.842Z,31.17
2019-04-21T17:03:06.793Z,30.99
2019-04-21T17:05:40.365Z,30.77
2019-04-21T17:08:13.728Z,30.23
2019-04-21T17:11:00.388Z,29.53
2019-04-21T17:13:22.255Z,28.80
2019-04-21T17:16:15.338Z,28.05
2019-04-21T17:18:43.630Z,27.34
2019-04-21T17:21:05.160Z,26.69
2019-04-21T17:23:37.859Z,26.04
2019-04-21T17:26:10.987Z,25.42
2019-04-21T17:28:44.934Z,24.85
2019-04-21T17:31:18.228Z,24.32
2019-04-21T17:33:59.663Z,23.77
2019-04-21T17:36:27.248Z,23.26
2019-04-21T17:39:00.208Z,22.83
2019-04-21T17:41:39.997Z,22.34
2019-04-21T17:44:08.863Z,21.89
2019-04-21T17:46:49.988Z,21.49
2019-04-21T17:49:16.986Z,21.14
2019-04-21T17:51:55.187Z,20.76
2019-04-21T17:54:35.749Z,20.41
2019-04-21T17:57:29.233Z,20.05
2019-04-21T18:00:13.955Z,19.77
2019-04-21T18:02:36.730Z,19.39
2019-04-21T18:05:13.290Z,19.10
2019-04-21T18:07:55.993Z,18.78
2019-04-21T18:10:12.610Z,18.52
2019-04-21T18:12:43.081Z,18.24
2019-04-21T18:15:22.115Z,17.96
2019-04-21T18:17:42.752Z,17.69
2019-04-21T18:20:19.612Z,17.42
2019-04-21T18:22:54.631Z,17.17
2019-04-21T18:25:39.757Z,16.93
2019-04-21T18:28:02.950Z,16.75
2019-04-21T18:30:56.552Z,16.56
2019-04-21T18:33:33.897Z,16.40
2019-04-21T18:36:13.447Z,16.26
2019-04-21T18:39:04.471Z,16.11
2019-04-21T18:41:34.149Z,15.99
2019-04-21T18:44:36.488Z,15.85
2019-04-21T18:47:09.057Z,15.74
2019-04-21T18:49:39.052Z,15.64
2019-04-21T18:52:32.261Z,15.51
2019-04-21T18:55:09.438Z,15.42
2019-04-21T18:57:37.422Z,15.32
2019-04-21T19:00:15.352Z,15.23
2019-04-21T19:02:45.642Z,15.13
2019-04-21T19:05:17.637Z,15.06
2019-04-21T19:08:03.967Z,14.96
2019-04-21T19:10:39.640Z,14.90
2019-04-21T19:16:17.352Z,14.70
2019-04-21T19:18:40.170Z,14.62
2019-04-21T19:20:54.235Z,14.52
2019-04-21T19:23:45.591Z,14.43
2019-04-21T19:26:15.080Z,14.36
2019-04-21T19:28:47.549Z,14.28
2019-04-21T19:31:28.277Z,14.24
2019-04-21T19:33:45.537Z,14.12
2019-04-21T19:36:09.200Z,14.05
2019-04-21T19:38:51.626Z,14.01
2019-04-21T19:41:32.468Z,13.93
2019-04-21T19:44:06.473Z,13.87
2019-04-21T19:46:39.523Z,13.84
2019-04-21T19:49:21.180Z,13.83
2019-04-21T19:51:46.181Z,13.75
2019-04-21T19:54:20.211Z,13.69
2019-04-21T19:56:43.034Z,13.63
2019-04-21T19:59:19.970Z,13.58
2019-04-21T20:01:51.344Z,13.49
2019-04-21T20:04:31.707Z,13.46
2019-04-21T20:07:15.586Z,13.41
2019-04-21T20:09:50.424Z,13.33
2019-04-21T20:12:34.222Z,13.27
2019-04-21T20:15:08.156Z,13.23
2019-04-21T20:17:35.126Z,13.16
2019-04-21T20:19:50.303Z,13.11
2019-04-21T20:22:30.015Z,13.04
2019-04-21T20:25:05.928Z,13.02
2019-04-21T20:27:42.986Z,12.98
2019-04-21T20:30:27.198Z,12.89
2019-04-21T20:33:05.832Z,12.84
2019-04-21T20:35:46.539Z,12.79
2019-04-21T20:38:09.350Z,12.75
2019-04-21T20:40:39.007Z,12.72
2019-04-21T20:43:38.193Z,12.66
2019-04-21T20:46:00.858Z,12.59
2019-04-21T20:48:20.017Z,12.58
2019-04-21T20:51:06.424Z,12.52
2019-04-21T20:53:37.979Z,12.48
2019-04-21T20:56:05.026Z,12.44
2019-04-21T20:58:48.263Z,12.40
2019-04-21T21:03:51.785Z,12.30
2019-04-21T21:06:26.329Z,12.27
2019-04-21T21:09:03.539Z,12.22
2019-04-21T21:11:36.982Z,12.17
2019-04-21T21:14:11.721Z,12.13
2019-04-21T21:16:50.396Z,12.10
2019-04-21T21:19:26.747Z,12.05
2019-04-21T21:21:53.518Z,12.00
2019-04-21T21:24:36.392Z,11.98
2019-04-21T21:27:02.051Z,11.93
2019-04-21T21:29:33.522Z,11.88
2019-04-21T21:32:16.259Z,11.89
2019-04-21T21:34:45.510Z,11.85
2019-04-21T21:37:32.189Z,11.81
2019-04-21T21:39:57.126Z,11.81
2019-04-21T21:42:13.875Z,11.77
2019-04-21T21:44:54.558Z,11.71
2019-04-21T21:47:44.752Z,11.70
2019-04-21T21:50:07.351Z,11.70
2019-04-21T21:52:46.516Z,11.61
2019-04-21T21:55:05.723Z,11.57
2019-04-21T21:57:43.013Z,11.53
2019-04-21T22:00:15.300Z,11.47
2019-04-21T22:02:53.456Z,11.39
2019-04-21T22:05:29.165Z,11.32
2019-04-21T22:08:00.533Z,11.23
2019-04-21T22:10:34.859Z,11.15
2019-04-21T22:13:12.806Z,11.09
2019-04-21T22:15:43.587Z,10.99
2019-04-21T22:18:36.234Z,10.91
2019-04-21T22:21:02.219Z,10.84
2019-04-21T22:23:36.913Z,10.74
2019-04-21T22:25:59.140Z,10.66
2019-04-21T22:28:31.912Z,10.57
2019-04-21T22:31:08.162Z,10.47
2019-04-21T22:33:47.849Z,10.43
2019-04-21T22:36:26.479Z,10.35
2019-04-21T22:39:09.277Z,10.31
2019-04-21T22:41:30.967Z,10.25
2019-04-21T22:43:58.960Z,10.18
2019-04-21T22:46:32.596Z,10.14
2019-04-21T22:49:09.359Z,10.08
2019-04-21T22:51:45.975Z,10.03
2019-04-21T22:54:22.169Z,10.00
2019-04-21T22:56:58.547Z,9.93
2019-04-21T22:59:26.123Z,9.90
2019-04-21T23:01:59.417Z,9.85
2019-04-21T23:04:39.561Z,9.79
2019-04-21T23:07:13.562Z,9.73
2019-04-21T23:09:45.400Z,9.63
2019-04-21T23:12:20.424Z,9.59
2019-04-21T23:15:01.895Z,9.53
2019-04-21T23:17:48.231Z,9.46
2019-04-21T23:20:22.442Z,9.38
2019-04-21T23:23:01.992Z,9.31
2019-04-21T23:25:26.240Z,9.24
2019-04-21T23:28:03.056Z,9.14
2019-04-21T23:30:45.775Z,9.06
2019-04-21T23:33:02.395Z,8.98
2019-04-21T23:35:35.288Z,8.91
2019-04-21T23:38:06.543Z,8.82
2019-04-21T23:40:41.894Z,8.71
2019-04-21T23:43:18.784Z,8.62
2019-04-21T23:45:47.955Z,8.55
2019-04-21T23:48:32.475Z,8.48
2019-04-21T23:51:10.915Z,8.37
2019-04-21T23:53:31.135Z,8.30
2019-04-21T23:56:03.835Z,8.20
2019-04-21T23:58:39.910Z,8.15
